Toledo, Argentina
Current Conditions -  °F | °C
As of 11:00 AM on Saturday 22 Nov 2014 (Local Time) from SACO Reporting Station
Clear Clear  
Wind Chill: 75°   Ceiling: Unl
Heat Index: 75°   Visibility: 6mi
Dew Point: 43°   Wind: 6mph
Humidity: 31%   Direction: 140°SE
Pressure: 30.06"   Gusts: NA
Location:  31.57°S, 64.02°W
Report Text: SACO 221400Z 14005KT CAVOK 24/06 Q1018
Loading
Personal Weather Stations






























Interactive Weather Map New forecast layout! Learn more

10-Day Weather Forecast

Advertisements
Track Severe Weather on mobile